sensor_id;sensor_type;location;lat;lon;timestamp;temperature;humidity
20081;DHT22;10200;49.232;9.222;2022-07-06T00:01:33;20.70;66.60
20081;DHT22;10200;49.232;9.222;2022-07-06T00:04:00;20.70;67.20
20081;DHT22;10200;49.232;9.222;2022-07-06T00:06:26;20.70;67.60
20081;DHT22;10200;49.232;9.222;2022-07-06T00:08:51;20.70;68.00
20081;DHT22;10200;49.232;9.222;2022-07-06T00:11:17;20.70;68.40
20081;DHT22;10200;49.232;9.222;2022-07-06T00:13:43;20.70;68.30
20081;DHT22;10200;49.232;9.222;2022-07-06T00:16:08;20.70;68.50
20081;DHT22;10200;49.232;9.222;2022-07-06T00:18:34;20.60;68.00
20081;DHT22;10200;49.232;9.222;2022-07-06T00:20:59;20.60;68.10
20081;DHT22;10200;49.232;9.222;2022-07-06T00:23:25;20.50;68.10
20081;DHT22;10200;49.232;9.222;2022-07-06T00:25:51;20.40;68.00
20081;DHT22;10200;49.232;9.222;2022-07-06T00:28:16;20.40;68.40
20081;DHT22;10200;49.232;9.222;2022-07-06T00:30:42;20.30;68.50
20081;DHT22;10200;49.232;9.222;2022-07-06T00:33:08;20.20;69.70
20081;DHT22;10200;49.232;9.222;2022-07-06T00:35:34;20.30;70.00
20081;DHT22;10200;49.232;9.222;2022-07-06T00:38:00;20.20;69.70
20081;DHT22;10200;49.232;9.222;2022-07-06T00:40:26;20.20;69.90
20081;DHT22;10200;49.232;9.222;2022-07-06T00:42:51;20.10;70.00
20081;DHT22;10200;49.232;9.222;2022-07-06T00:45:18;20.00;70.70
20081;DHT22;10200;49.232;9.222;2022-07-06T00:47:44;20.00;70.80
20081;DHT22;10200;49.232;9.222;2022-07-06T00:50:13;20.00;71.20
20081;DHT22;10200;49.232;9.222;2022-07-06T00:53:02;19.90;71.50
20081;DHT22;10200;49.232;9.222;2022-07-06T00:55:32;19.80;71.30
20081;DHT22;10200;49.232;9.222;2022-07-06T00:57:57;19.90;71.90
20081;DHT22;10200;49.232;9.222;2022-07-06T01:00:26;19.90;71.30
20081;DHT22;10200;49.232;9.222;2022-07-06T01:02:52;19.80;71.30
20081;DHT22;10200;49.232;9.222;2022-07-06T01:05:18;19.70;71.30
20081;DHT22;10200;49.232;9.222;2022-07-06T01:07:46;19.60;71.60
20081;DHT22;10200;49.232;9.222;2022-07-06T01:10:13;19.50;72.70
20081;DHT22;10200;49.232;9.222;2022-07-06T01:12:41;19.60;73.20
20081;DHT22;10200;49.232;9.222;2022-07-06T01:15:15;19.50;73.20
20081;DHT22;10200;49.232;9.222;2022-07-06T01:17:42;19.40;73.40
20081;DHT22;10200;49.232;9.222;2022-07-06T01:20:15;19.40;73.00
20081;DHT22;10200;49.232;9.222;2022-07-06T01:22:42;19.40;73.40
20081;DHT22;10200;49.232;9.222;2022-07-06T01:25:09;19.30;73.80
20081;DHT22;10200;49.232;9.222;2022-07-06T01:27:35;19.30;74.40
20081;DHT22;10200;49.232;9.222;2022-07-06T01:30:06;19.30;75.20
20081;DHT22;10200;49.232;9.222;2022-07-06T01:32:33;19.30;75.10
20081;DHT22;10200;49.232;9.222;2022-07-06T01:34:59;19.40;75.30
20081;DHT22;10200;49.232;9.222;2022-07-06T01:37:25;19.40;76.10
20081;DHT22;10200;49.232;9.222;2022-07-06T01:39:50;19.40;75.10
20081;DHT22;10200;49.232;9.222;2022-07-06T01:42:16;19.40;74.80
20081;DHT22;10200;49.232;9.222;2022-07-06T01:44:43;19.30;74.90
20081;DHT22;10200;49.232;9.222;2022-07-06T01:47:09;19.30;74.80
20081;DHT22;10200;49.232;9.222;2022-07-06T01:49:35;19.30;74.70
20081;DHT22;10200;49.232;9.222;2022-07-06T01:52:00;19.30;75.10
20081;DHT22;10200;49.232;9.222;2022-07-06T01:54:26;19.20;75.70
20081;DHT22;10200;49.232;9.222;2022-07-06T01:56:52;19.10;76.00
20081;DHT22;10200;49.232;9.222;2022-07-06T01:59:17;19.10;76.60
20081;DHT22;10200;49.232;9.222;2022-07-06T02:01:43;19.90;91.40
20081;DHT22;10200;49.232;9.222;2022-07-06T02:04:08;19.00;78.30
20081;DHT22;10200;49.232;9.222;2022-07-06T02:06:34;19.10;78.70
20081;DHT22;10200;49.232;9.222;2022-07-06T02:08:59;19.10;78.40
20081;DHT22;10200;49.232;9.222;2022-07-06T02:11:25;19.10;78.70
20081;DHT22;10200;49.232;9.222;2022-07-06T02:13:52;19.50;78.80
20081;DHT22;10200;49.232;9.222;2022-07-06T02:16:18;19.10;78.40
20081;DHT22;10200;49.232;9.222;2022-07-06T02:18:43;19.00;77.40
20081;DHT22;10200;49.232;9.222;2022-07-06T02:21:09;19.00;77.40
20081;DHT22;10200;49.232;9.222;2022-07-06T02:23:34;19.00;77.90
20081;DHT22;10200;49.232;9.222;2022-07-06T02:26:00;19.10;77.90
20081;DHT22;10200;49.232;9.222;2022-07-06T02:28:25;19.00;78.20
20081;DHT22;10200;49.232;9.222;2022-07-06T02:30:51;19.00;78.40
20081;DHT22;10200;49.232;9.222;2022-07-06T02:33:16;19.00;78.80
20081;DHT22;10200;49.232;9.222;2022-07-06T02:35:42;18.90;78.70
20081;DHT22;10200;49.232;9.222;2022-07-06T02:38:09;18.90;79.50
20081;DHT22;10200;49.232;9.222;2022-07-06T02:40:35;18.90;79.40
20081;DHT22;10200;49.232;9.222;2022-07-06T02:43:01;18.90;79.30
20081;DHT22;10200;49.232;9.222;2022-07-06T02:45:26;18.80;79.20
20081;DHT22;10200;49.232;9.222;2022-07-06T02:47:52;18.70;79.80
20081;DHT22;10200;49.232;9.222;2022-07-06T02:50:20;18.60;80.10
20081;DHT22;10200;49.232;9.222;2022-07-06T02:52:46;18.60;80.80
20081;DHT22;10200;49.232;9.222;2022-07-06T02:55:11;18.50;80.80
20081;DHT22;10200;49.232;9.222;2022-07-06T02:57:37;18.50;80.90
20081;DHT22;10200;49.232;9.222;2022-07-06T03:00:03;18.50;81.10
20081;DHT22;10200;49.232;9.222;2022-07-06T03:02:29;18.40;81.20
20081;DHT22;10200;49.232;9.222;2022-07-06T03:04:55;18.40;82.40
20081;DHT22;10200;49.232;9.222;2022-07-06T03:07:22;18.40;82.30
20081;DHT22;10200;49.232;9.222;2022-07-06T03:09:47;18.30;82.90
20081;DHT22;10200;49.232;9.222;2022-07-06T03:12:13;18.30;84.50
20081;DHT22;10200;49.232;9.222;2022-07-06T03:14:39;18.30;84.80
20081;DHT22;10200;49.232;9.222;2022-07-06T03:17:04;18.40;85.60
20081;DHT22;10200;49.232;9.222;2022-07-06T03:19:30;18.40;84.80
20081;DHT22;10200;49.232;9.222;2022-07-06T03:21:55;18.40;85.00
20081;DHT22;10200;49.232;9.222;2022-07-06T03:24:21;18.40;84.80
20081;DHT22;10200;49.232;9.222;2022-07-06T03:26:47;18.30;85.30
20081;DHT22;10200;49.232;9.222;2022-07-06T03:29:12;18.30;85.30
20081;DHT22;10200;49.232;9.222;2022-07-06T03:31:38;18.30;85.30
20081;DHT22;10200;49.232;9.222;2022-07-06T03:34:03;18.30;85.90
20081;DHT22;10200;49.232;9.222;2022-07-06T03:36:29;18.40;85.80
20081;DHT22;10200;49.232;9.222;2022-07-06T03:38:55;18.40;85.90
20081;DHT22;10200;49.232;9.222;2022-07-06T03:41:20;18.40;86.00
20081;DHT22;10200;49.232;9.222;2022-07-06T03:43:46;18.50;86.40
20081;DHT22;10200;49.232;9.222;2022-07-06T03:46:11;18.50;87.20
20081;DHT22;10200;49.232;9.222;2022-07-06T03:48:37;18.50;86.40
20081;DHT22;10200;49.232;9.222;2022-07-06T03:51:02;18.50;87.00
20081;DHT22;10200;49.232;9.222;2022-07-06T03:53:28;18.50;86.90
20081;DHT22;10200;49.232;9.222;2022-07-06T03:55:54;18.50;86.80
20081;DHT22;10200;49.232;9.222;2022-07-06T03:58:38;18.60;86.80
20081;DHT22;10200;49.232;9.222;2022-07-06T04:01:04;18.60;87.00
20081;DHT22;10200;49.232;9.222;2022-07-06T04:03:29;18.70;86.40
20081;DHT22;10200;49.232;9.222;2022-07-06T04:05:55;18.60;85.60
20081;DHT22;10200;49.232;9.222;2022-07-06T04:08:20;18.70;85.90
20081;DHT22;10200;49.232;9.222;2022-07-06T04:10:46;18.80;85.00
20081;DHT22;10200;49.232;9.222;2022-07-06T04:13:12;18.70;82.70
20081;DHT22;10200;49.232;9.222;2022-07-06T04:15:37;18.70;83.80
20081;DHT22;10200;49.232;9.222;2022-07-06T04:18:04;18.80;83.30
20081;DHT22;10200;49.232;9.222;2022-07-06T04:20:29;18.80;82.20
20081;DHT22;10200;49.232;9.222;2022-07-06T04:22:55;18.80;82.10
20081;DHT22;10200;49.232;9.222;2022-07-06T04:25:20;18.80;81.70
20081;DHT22;10200;49.232;9.222;2022-07-06T04:27:46;18.80;79.70
20081;DHT22;10200;49.232;9.222;2022-07-06T04:30:12;18.80;81.10
20081;DHT22;10200;49.232;9.222;2022-07-06T04:32:38;18.90;81.30
20081;DHT22;10200;49.232;9.222;2022-07-06T04:35:05;19.00;80.70
20081;DHT22;10200;49.232;9.222;2022-07-06T04:37:31;19.00;79.70
20081;DHT22;10200;49.232;9.222;2022-07-06T04:39:56;19.10;79.90
20081;DHT22;10200;49.232;9.222;2022-07-06T04:42:23;19.10;78.60
20081;DHT22;10200;49.232;9.222;2022-07-06T04:44:49;19.10;78.40
20081;DHT22;10200;49.232;9.222;2022-07-06T04:47:17;19.10;78.50
20081;DHT22;10200;49.232;9.222;2022-07-06T04:49:42;19.20;77.90
20081;DHT22;10200;49.232;9.222;2022-07-06T04:52:08;19.20;78.50
20081;DHT22;10200;49.232;9.222;2022-07-06T04:54:33;19.30;78.50
20081;DHT22;10200;49.232;9.222;2022-07-06T04:56:59;19.50;79.20
20081;DHT22;10200;49.232;9.222;2022-07-06T04:59:25;19.50;77.50
20081;DHT22;10200;49.232;9.222;2022-07-06T05:01:50;19.50;77.70
20081;DHT22;10200;49.232;9.222;2022-07-06T05:04:16;19.60;76.80
20081;DHT22;10200;49.232;9.222;2022-07-06T05:06:45;19.50;75.90
20081;DHT22;10200;49.232;9.222;2022-07-06T05:09:12;19.50;75.30
20081;DHT22;10200;49.232;9.222;2022-07-06T05:11:38;19.50;75.50
20081;DHT22;10200;49.232;9.222;2022-07-06T05:14:04;19.60;76.00
20081;DHT22;10200;49.232;9.222;2022-07-06T05:16:29;19.80;75.50
20081;DHT22;10200;49.232;9.222;2022-07-06T05:18:55;20.20;75.70
20081;DHT22;10200;49.232;9.222;2022-07-06T05:21:21;20.40;74.80
20081;DHT22;10200;49.232;9.222;2022-07-06T05:23:46;20.80;75.70
20081;DHT22;10200;49.232;9.222;2022-07-06T05:26:12;21.10;72.00
20081;DHT22;10200;49.232;9.222;2022-07-06T05:28:37;21.40;72.00
20081;DHT22;10200;49.232;9.222;2022-07-06T05:31:03;21.60;69.30
20081;DHT22;10200;49.232;9.222;2022-07-06T05:33:28;21.80;67.80
20081;DHT22;10200;49.232;9.222;2022-07-06T05:35:54;22.00;66.90
20081;DHT22;10200;49.232;9.222;2022-07-06T05:38:20;22.30;65.30
20081;DHT22;10200;49.232;9.222;2022-07-06T05:40:46;22.50;64.10
20081;DHT22;10200;49.232;9.222;2022-07-06T05:43:12;22.60;63.00
20081;DHT22;10200;49.232;9.222;2022-07-06T05:45:37;22.70;61.60
20081;DHT22;10200;49.232;9.222;2022-07-06T05:48:03;22.80;60.70
20081;DHT22;10200;49.232;9.222;2022-07-06T05:50:47;22.90;60.60
20081;DHT22;10200;49.232;9.222;2022-07-06T05:53:13;23.10;59.80
20081;DHT22;10200;49.232;9.222;2022-07-06T05:55:38;23.20;59.70
20081;DHT22;10200;49.232;9.222;2022-07-06T05:58:04;23.30;59.00
20081;DHT22;10200;49.232;9.222;2022-07-06T06:00:30;23.20;59.40
20081;DHT22;10200;49.232;9.222;2022-07-06T06:02:55;23.20;59.50
20081;DHT22;10200;49.232;9.222;2022-07-06T06:05:22;23.10;58.40
20081;DHT22;10200;49.232;9.222;2022-07-06T06:07:48;23.20;59.20
20081;DHT22;10200;49.232;9.222;2022-07-06T06:10:17;23.10;59.10
20081;DHT22;10200;49.232;9.222;2022-07-06T06:12:44;23.10;59.70
20081;DHT22;10200;49.232;9.222;2022-07-06T06:15:10;23.30;59.30
20081;DHT22;10200;49.232;9.222;2022-07-06T06:17:37;23.30;58.30
20081;DHT22;10200;49.232;9.222;2022-07-06T06:20:08;23.50;58.60
20081;DHT22;10200;49.232;9.222;2022-07-06T06:22:51;24.00;59.00
20081;DHT22;10200;49.232;9.222;2022-07-06T06:25:37;24.40;58.00
20081;DHT22;10200;49.232;9.222;2022-07-06T06:28:04;24.40;56.20
20081;DHT22;10200;49.232;9.222;2022-07-06T06:30:30;24.50;55.50
20081;DHT22;10200;49.232;9.222;2022-07-06T06:33:18;24.70;54.90
20081;DHT22;10200;49.232;9.222;2022-07-06T06:35:48;25.00;55.00
20081;DHT22;10200;49.232;9.222;2022-07-06T06:38:15;25.20;52.50
20081;DHT22;10200;49.232;9.222;2022-07-06T06:40:41;25.50;52.90
20081;DHT22;10200;49.232;9.222;2022-07-06T06:43:06;26.00;52.70
20081;DHT22;10200;49.232;9.222;2022-07-06T06:45:32;26.30;51.00
20081;DHT22;10200;49.232;9.222;2022-07-06T06:47:58;26.40;50.00
20081;DHT22;10200;49.232;9.222;2022-07-06T06:50:23;26.40;49.80
20081;DHT22;10200;49.232;9.222;2022-07-06T06:52:50;26.70;51.20
20081;DHT22;10200;49.232;9.222;2022-07-06T06:55:16;27.00;49.90
20081;DHT22;10200;49.232;9.222;2022-07-06T06:57:41;27.30;48.80
20081;DHT22;10200;49.232;9.222;2022-07-06T07:00:07;27.50;48.10
20081;DHT22;10200;49.232;9.222;2022-07-06T07:02:33;27.80;47.90
20081;DHT22;10200;49.232;9.222;2022-07-06T07:04:59;27.90;46.90
20081;DHT22;10200;49.232;9.222;2022-07-06T07:07:24;27.70;46.20
20081;DHT22;10200;49.232;9.222;2022-07-06T07:09:50;27.80;47.70
20081;DHT22;10200;49.232;9.222;2022-07-06T07:12:16;28.00;47.20
20081;DHT22;10200;49.232;9.222;2022-07-06T07:14:45;28.00;46.00
20081;DHT22;10200;49.232;9.222;2022-07-06T07:17:11;28.00;47.10
20081;DHT22;10200;49.232;9.222;2022-07-06T07:19:37;28.30;47.40
20081;DHT22;10200;49.232;9.222;2022-07-06T07:22:03;28.60;46.70
20081;DHT22;10200;49.232;9.222;2022-07-06T07:24:29;28.80;45.60
20081;DHT22;10200;49.232;9.222;2022-07-06T07:26:55;28.80;45.30
20081;DHT22;10200;49.232;9.222;2022-07-06T07:29:21;28.70;44.20
20081;DHT22;10200;49.232;9.222;2022-07-06T07:31:46;28.40;45.30
20081;DHT22;10200;49.232;9.222;2022-07-06T07:34:12;28.10;46.10
20081;DHT22;10200;49.232;9.222;2022-07-06T07:36:38;28.10;46.40
20081;DHT22;10200;49.232;9.222;2022-07-06T07:39:04;28.30;45.60
20081;DHT22;10200;49.232;9.222;2022-07-06T07:41:30;28.20;44.90
20081;DHT22;10200;49.232;9.222;2022-07-06T07:43:55;28.30;45.30
20081;DHT22;10200;49.232;9.222;2022-07-06T07:46:21;28.20;45.10
20081;DHT22;10200;49.232;9.222;2022-07-06T07:48:47;28.00;45.00
20081;DHT22;10200;49.232;9.222;2022-07-06T07:51:12;28.10;45.50
20081;DHT22;10200;49.232;9.222;2022-07-06T07:53:38;28.00;45.40
20081;DHT22;10200;49.232;9.222;2022-07-06T07:56:04;28.10;46.10
20081;DHT22;10200;49.232;9.222;2022-07-06T07:58:29;28.50;46.40
20081;DHT22;10200;49.232;9.222;2022-07-06T08:00:55;28.80;45.70
20081;DHT22;10200;49.232;9.222;2022-07-06T08:03:21;29.10;44.80
20081;DHT22;10200;49.232;9.222;2022-07-06T08:05:46;29.40;45.10
20081;DHT22;10200;49.232;9.222;2022-07-06T08:08:15;29.10;43.90
20081;DHT22;10200;49.232;9.222;2022-07-06T08:10:40;29.20;44.00
20081;DHT22;10200;49.232;9.222;2022-07-06T08:13:06;29.20;44.30
20081;DHT22;10200;49.232;9.222;2022-07-06T08:15:33;29.50;45.40
20081;DHT22;10200;49.232;9.222;2022-07-06T08:17:59;29.70;43.50
20081;DHT22;10200;49.232;9.222;2022-07-06T08:20:25;29.70;43.90
20081;DHT22;10200;49.232;9.222;2022-07-06T08:22:51;29.90;42.90
20081;DHT22;10200;49.232;9.222;2022-07-06T08:25:17;29.90;43.50
20081;DHT22;10200;49.232;9.222;2022-07-06T08:27:43;30.00;42.70
20081;DHT22;10200;49.232;9.222;2022-07-06T08:30:09;30.00;42.40
20081;DHT22;10200;49.232;9.222;2022-07-06T08:32:38;30.00;42.50
20081;DHT22;10200;49.232;9.222;2022-07-06T08:35:04;29.80;42.10
20081;DHT22;10200;49.232;9.222;2022-07-06T08:37:30;29.60;43.10
20081;DHT22;10200;49.232;9.222;2022-07-06T08:39:55;29.60;43.50
20081;DHT22;10200;49.232;9.222;2022-07-06T08:42:21;29.80;43.60
20081;DHT22;10200;49.232;9.222;2022-07-06T08:44:50;29.90;43.20
20081;DHT22;10200;49.232;9.222;2022-07-06T08:47:18;29.90;43.20
20081;DHT22;10200;49.232;9.222;2022-07-06T08:49:44;30.10;43.20
20081;DHT22;10200;49.232;9.222;2022-07-06T08:52:10;30.50;43.00
20081;DHT22;10200;49.232;9.222;2022-07-06T08:54:37;30.80;42.20
20081;DHT22;10200;49.232;9.222;2022-07-06T08:57:03;31.00;42.30
20081;DHT22;10200;49.232;9.222;2022-07-06T08:59:29;31.30;41.80
20081;DHT22;10200;49.232;9.222;2022-07-06T09:01:55;31.60;41.50
20081;DHT22;10200;49.232;9.222;2022-07-06T09:04:22;31.30;40.40
20081;DHT22;10200;49.232;9.222;2022-07-06T09:06:49;31.00;41.10
20081;DHT22;10200;49.232;9.222;2022-07-06T09:09:24;30.50;40.50
20081;DHT22;10200;49.232;9.222;2022-07-06T09:11:51;29.80;42.30
20081;DHT22;10200;49.232;9.222;2022-07-06T09:14:18;29.60;43.70
20081;DHT22;10200;49.232;9.222;2022-07-06T09:16:45;29.90;43.20
20081;DHT22;10200;49.232;9.222;2022-07-06T09:19:12;30.20;42.90
20081;DHT22;10200;49.232;9.222;2022-07-06T09:21:39;30.00;42.70
20081;DHT22;10200;49.232;9.222;2022-07-06T09:24:11;30.20;42.80
20081;DHT22;10200;49.232;9.222;2022-07-06T09:26:38;30.50;42.90
20081;DHT22;10200;49.232;9.222;2022-07-06T09:29:04;30.70;42.50
20081;DHT22;10200;49.232;9.222;2022-07-06T09:31:30;30.40;41.50
20081;DHT22;10200;49.232;9.222;2022-07-06T09:34:01;30.00;41.70
20081;DHT22;10200;49.232;9.222;2022-07-06T09:39:24;29.70;42.40
20081;DHT22;10200;49.232;9.222;2022-07-06T09:41:55;29.30;42.70
20081;DHT22;10200;49.232;9.222;2022-07-06T09:44:29;29.10;43.40
20081;DHT22;10200;49.232;9.222;2022-07-06T09:46:57;29.00;44.10
20081;DHT22;10200;49.232;9.222;2022-07-06T09:49:23;28.90;43.90
20081;DHT22;10200;49.232;9.222;2022-07-06T09:51:57;28.70;44.10
20081;DHT22;10200;49.232;9.222;2022-07-06T09:54:24;28.50;44.90
20081;DHT22;10200;49.232;9.222;2022-07-06T09:56:50;28.40;45.30
20081;DHT22;10200;49.232;9.222;2022-07-06T09:59:18;28.60;45.40
20081;DHT22;10200;49.232;9.222;2022-07-06T10:01:44;28.60;45.10
20081;DHT22;10200;49.232;9.222;2022-07-06T10:04:12;28.60;45.90
20081;DHT22;10200;49.232;9.222;2022-07-06T10:06:39;28.40;45.00
20081;DHT22;10200;49.232;9.222;2022-07-06T10:09:09;28.30;45.30
20081;DHT22;10200;49.232;9.222;2022-07-06T10:11:39;28.00;45.90
20081;DHT22;10200;49.232;9.222;2022-07-06T10:14:06;28.20;46.40
20081;DHT22;10200;49.232;9.222;2022-07-06T10:16:35;28.10;45.50
20081;DHT22;10200;49.232;9.222;2022-07-06T10:19:03;28.00;46.00
20081;DHT22;10200;49.232;9.222;2022-07-06T10:21:30;27.90;45.80
20081;DHT22;10200;49.232;9.222;2022-07-06T10:23:56;27.80;46.50
20081;DHT22;10200;49.232;9.222;2022-07-06T10:26:25;28.00;46.20
20081;DHT22;10200;49.232;9.222;2022-07-06T10:28:52;28.00;46.00
20081;DHT22;10200;49.232;9.222;2022-07-06T10:31:19;28.30;46.40
20081;DHT22;10200;49.232;9.222;2022-07-06T10:33:46;28.80;45.50
20081;DHT22;10200;49.232;9.222;2022-07-06T10:36:13;28.70;44.50
20081;DHT22;10200;49.232;9.222;2022-07-06T10:38:40;28.90;45.60
20081;DHT22;10200;49.232;9.222;2022-07-06T10:41:08;29.00;44.70
20081;DHT22;10200;49.232;9.222;2022-07-06T10:43:35;29.30;44.00
20081;DHT22;10200;49.232;9.222;2022-07-06T10:46:12;29.60;44.20
20081;DHT22;10200;49.232;9.222;2022-07-06T10:48:46;29.90;44.00
20081;DHT22;10200;49.232;9.222;2022-07-06T10:51:23;30.00;42.80
20081;DHT22;10200;49.232;9.222;2022-07-06T10:53:56;30.00;42.10
20081;DHT22;10200;49.232;9.222;2022-07-06T10:56:42;30.00;42.20
20081;DHT22;10200;49.232;9.222;2022-07-06T10:59:16;29.90;42.50
20081;DHT22;10200;49.232;9.222;2022-07-06T11:02:17;30.10;42.80
20081;DHT22;10200;49.232;9.222;2022-07-06T11:04:48;30.00;41.50
20081;DHT22;10200;49.232;9.222;2022-07-06T11:07:16;29.80;42.10
20081;DHT22;10200;49.232;9.222;2022-07-06T11:09:57;29.50;42.10
20081;DHT22;10200;49.232;9.222;2022-07-06T11:12:23;29.30;42.80
20081;DHT22;10200;49.232;9.222;2022-07-06T11:14:49;29.50;43.50
20081;DHT22;10200;49.232;9.222;2022-07-06T11:17:16;29.70;43.30
20081;DHT22;10200;49.232;9.222;2022-07-06T11:20:11;29.80;43.60
20081;DHT22;10200;49.232;9.222;2022-07-06T11:22:38;30.00;42.40
20081;DHT22;10200;49.232;9.222;2022-07-06T11:25:05;30.00;41.70
20081;DHT22;10200;49.232;9.222;2022-07-06T11:27:30;30.20;42.10
20081;DHT22;10200;49.232;9.222;2022-07-06T11:29:56;30.10;41.20
20081;DHT22;10200;49.232;9.222;2022-07-06T11:32:26;29.90;41.80
20081;DHT22;10200;49.232;9.222;2022-07-06T11:34:52;30.10;42.00
20081;DHT22;10200;49.232;9.222;2022-07-06T11:37:18;30.10;42.00
20081;DHT22;10200;49.232;9.222;2022-07-06T11:39:45;30.10;41.20
20081;DHT22;10200;49.232;9.222;2022-07-06T11:42:13;30.10;42.10
20081;DHT22;10200;49.232;9.222;2022-07-06T11:44:40;30.10;41.20
20081;DHT22;10200;49.232;9.222;2022-07-06T11:47:07;30.00;40.70
20081;DHT22;10200;49.232;9.222;2022-07-06T11:49:35;30.00;40.70
20081;DHT22;10200;49.232;9.222;2022-07-06T11:52:09;30.00;40.80
20081;DHT22;10200;49.232;9.222;2022-07-06T11:54:35;30.30;41.60
20081;DHT22;10200;49.232;9.222;2022-07-06T11:57:01;30.40;41.80
20081;DHT22;10200;49.232;9.222;2022-07-06T11:59:33;30.30;40.30
20081;DHT22;10200;49.232;9.222;2022-07-06T12:02:18;30.20;40.60
20081;DHT22;10200;49.232;9.222;2022-07-06T12:04:45;30.00;40.30
20081;DHT22;10200;49.232;9.222;2022-07-06T12:07:16;30.00;40.30
20081;DHT22;10200;49.232;9.222;2022-07-06T12:09:45;29.90;40.20
20081;DHT22;10200;49.232;9.222;2022-07-06T12:12:11;29.90;40.70
20081;DHT22;10200;49.232;9.222;2022-07-06T12:14:38;29.60;41.10
20081;DHT22;10200;49.232;9.222;2022-07-06T12:17:05;29.30;40.70
20081;DHT22;10200;49.232;9.222;2022-07-06T12:19:32;29.40;42.10
20081;DHT22;10200;49.232;9.222;2022-07-06T12:21:58;29.60;41.20
20081;DHT22;10200;49.232;9.222;2022-07-06T12:24:26;29.70;39.90
20081;DHT22;10200;49.232;9.222;2022-07-06T12:27:16;29.30;39.70
20081;DHT22;10200;49.232;9.222;2022-07-06T12:29:43;29.30;41.10
20081;DHT22;10200;49.232;9.222;2022-07-06T12:32:20;29.50;40.20
20081;DHT22;10200;49.232;9.222;2022-07-06T12:35:05;29.70;40.70
20081;DHT22;10200;49.232;9.222;2022-07-06T12:37:32;29.70;39.50
20081;DHT22;10200;49.232;9.222;2022-07-06T12:39:58;29.80;39.30
20081;DHT22;10200;49.232;9.222;2022-07-06T12:42:23;29.60;39.30
20081;DHT22;10200;49.232;9.222;2022-07-06T12:44:50;29.70;39.10
20081;DHT22;10200;49.232;9.222;2022-07-06T12:47:24;29.50;38.60
20081;DHT22;10200;49.232;9.222;2022-07-06T12:50:07;29.20;39.50
20081;DHT22;10200;49.232;9.222;2022-07-06T12:52:33;29.20;38.80
20081;DHT22;10200;49.232;9.222;2022-07-06T12:55:00;29.10;38.30
20081;DHT22;10200;49.232;9.222;2022-07-06T12:57:26;29.20;38.70
20081;DHT22;10200;49.232;9.222;2022-07-06T13:02:33;29.40;38.30
20081;DHT22;10200;49.232;9.222;2022-07-06T13:05:01;29.50;38.60
20081;DHT22;10200;49.232;9.222;2022-07-06T13:07:28;29.60;37.90
20081;DHT22;10200;49.232;9.222;2022-07-06T13:09:55;29.60;37.40
20081;DHT22;10200;49.232;9.222;2022-07-06T13:12:22;29.50;36.90
20081;DHT22;10200;49.232;9.222;2022-07-06T13:14:49;29.50;36.20
20081;DHT22;10200;49.232;9.222;2022-07-06T13:17:14;29.30;36.90
20081;DHT22;10200;49.232;9.222;2022-07-06T13:19:40;29.20;37.00
20081;DHT22;10200;49.232;9.222;2022-07-06T13:22:06;29.20;37.00
20081;DHT22;10200;49.232;9.222;2022-07-06T13:24:32;29.30;37.50
20081;DHT22;10200;49.232;9.222;2022-07-06T13:26:57;29.20;36.80
20081;DHT22;10200;49.232;9.222;2022-07-06T13:29:23;29.20;37.00
20081;DHT22;10200;49.232;9.222;2022-07-06T13:31:49;29.20;37.30
20081;DHT22;10200;49.232;9.222;2022-07-06T13:34:15;29.10;36.20
20081;DHT22;10200;49.232;9.222;2022-07-06T13:36:41;29.10;36.60
20081;DHT22;10200;49.232;9.222;2022-07-06T13:39:07;29.10;37.20
20081;DHT22;10200;49.232;9.222;2022-07-06T13:41:33;29.20;36.10
20081;DHT22;10200;49.232;9.222;2022-07-06T13:43:59;29.10;35.50
20081;DHT22;10200;49.232;9.222;2022-07-06T13:46:27;29.10;35.10
20081;DHT22;10200;49.232;9.222;2022-07-06T13:48:53;29.10;36.40
20081;DHT22;10200;49.232;9.222;2022-07-06T13:51:18;29.00;35.50
20081;DHT22;10200;49.232;9.222;2022-07-06T13:53:44;29.00;34.90
20081;DHT22;10200;49.232;9.222;2022-07-06T13:56:11;29.00;35.00
20081;DHT22;10200;49.232;9.222;2022-07-06T13:58:36;29.00;35.80
20081;DHT22;10200;49.232;9.222;2022-07-06T14:01:03;29.00;36.50
20081;DHT22;10200;49.232;9.222;2022-07-06T14:03:29;29.00;34.50
20081;DHT22;10200;49.232;9.222;2022-07-06T14:05:59;29.10;35.00
20081;DHT22;10200;49.232;9.222;2022-07-06T14:08:26;29.10;35.70
20081;DHT22;10200;49.232;9.222;2022-07-06T14:10:53;29.10;34.30
20081;DHT22;10200;49.232;9.222;2022-07-06T14:13:20;29.10;34.10
20081;DHT22;10200;49.232;9.222;2022-07-06T14:15:46;29.10;34.00
20081;DHT22;10200;49.232;9.222;2022-07-06T14:18:12;29.10;34.40
20081;DHT22;10200;49.232;9.222;2022-07-06T14:20:38;29.10;34.40
20081;DHT22;10200;49.232;9.222;2022-07-06T14:23:03;29.00;33.00
20081;DHT22;10200;49.232;9.222;2022-07-06T14:25:29;29.00;31.90
20081;DHT22;10200;49.232;9.222;2022-07-06T14:27:55;28.90;31.60
20081;DHT22;10200;49.232;9.222;2022-07-06T14:30:20;28.80;31.60
20081;DHT22;10200;49.232;9.222;2022-07-06T14:32:46;28.90;32.10
20081;DHT22;10200;49.232;9.222;2022-07-06T14:35:11;28.90;32.60
20081;DHT22;10200;49.232;9.222;2022-07-06T14:37:37;28.80;32.40
20081;DHT22;10200;49.232;9.222;2022-07-06T14:40:04;28.80;32.00
20081;DHT22;10200;49.232;9.222;2022-07-06T14:42:30;28.70;32.50
20081;DHT22;10200;49.232;9.222;2022-07-06T14:44:55;28.70;33.30
20081;DHT22;10200;49.232;9.222;2022-07-06T14:47:21;28.70;33.70
20081;DHT22;10200;49.232;9.222;2022-07-06T14:49:46;28.70;33.10
20081;DHT22;10200;49.232;9.222;2022-07-06T14:52:12;28.60;32.70
20081;DHT22;10200;49.232;9.222;2022-07-06T14:54:38;28.60;32.00
20081;DHT22;10200;49.232;9.222;2022-07-06T14:57:04;28.50;32.50
20081;DHT22;10200;49.232;9.222;2022-07-06T14:59:30;28.50;32.60
20081;DHT22;10200;49.232;9.222;2022-07-06T15:01:56;28.40;32.60
20081;DHT22;10200;49.232;9.222;2022-07-06T15:04:22;28.50;33.00
20081;DHT22;10200;49.232;9.222;2022-07-06T15:06:49;28.50;32.60
20081;DHT22;10200;49.232;9.222;2022-07-06T15:09:15;28.60;33.50
20081;DHT22;10200;49.232;9.222;2022-07-06T15:11:40;28.60;32.90
20081;DHT22;10200;49.232;9.222;2022-07-06T15:14:06;28.70;33.40
20081;DHT22;10200;49.232;9.222;2022-07-06T15:16:32;28.70;32.70
20081;DHT22;10200;49.232;9.222;2022-07-06T15:18:57;28.80;32.50
20081;DHT22;10200;49.232;9.222;2022-07-06T15:21:23;28.70;33.80
20081;DHT22;10200;49.232;9.222;2022-07-06T15:23:49;28.60;32.90
20081;DHT22;10200;49.232;9.222;2022-07-06T15:26:14;28.50;32.30
20081;DHT22;10200;49.232;9.222;2022-07-06T15:28:40;28.40;33.30
20081;DHT22;10200;49.232;9.222;2022-07-06T15:31:06;28.40;33.80
20081;DHT22;10200;49.232;9.222;2022-07-06T15:33:31;28.40;33.30
20081;DHT22;10200;49.232;9.222;2022-07-06T15:35:57;28.40;32.80